Аэропорт: Якутск. Якутск

ICAO: UEEE

METAR:
2019/03/26 13:00
UEEE 261300Z 28003MPS CAVOK M16/M21 Q1014 R23L/450064 NOSIG RMK QFE752
METAR:
2019/03/26 12:21
TAF UEEE 261100Z 2612/2718 30003G08MPS CAVOK